N216TB KPNS-KMSY
Flight info
| Callsign | N216TB |
|---|---|
| Flight time | 0h 57m |
| Altitude | 10000 |
| Route | DCT PENSI DCT LOXLY DCT SJI DCT GPT DCT SNAKI DCT JASPO DCT TURTL DCT CHAPI DCT MUDBG DCT |
| Aircraft | PC12/L-L/C |
Departure
| Time | 2026-04-22 14:06 |
|---|---|
| Airport | Pensacola International Airport (KPNS) |
Arrival
| Time | 2026-04-22 15:03 |
|---|---|
| Airport | Louis Armstrong New Orleans International Airport (KMSY) |
| Time | Latitude | Longitude | Altitude | Speed | Heading |
|---|---|---|---|---|---|
| 2026-04-22 13:48 | 30.46770 | -87.18193 | 109 ft | 0 kts | 257° |
| 2026-04-22 13:59 | 30.46763 | -87.18204 | 109 ft | 7 kts | 213° |
| 2026-04-22 14:00 | 30.46733 | -87.18265 | 109 ft | 15 kts | 255° |
| 2026-04-22 14:00 | 30.46711 | -87.18370 | 109 ft | 14 kts | 256° |
| 2026-04-22 14:00 | 30.46683 | -87.18513 | 108 ft | 13 kts | 258° |
| 2026-04-22 14:00 | 30.46669 | -87.18596 | 108 ft | 12 kts | 269° |
| 2026-04-22 14:01 | 30.46684 | -87.18689 | 108 ft | 11 kts | 253° |
| 2026-04-22 14:01 | 30.46674 | -87.18772 | 109 ft | 14 kts | 287° |
| 2026-04-22 14:01 | 30.46738 | -87.18812 | 109 ft | 9 kts | 348° |
| 2026-04-22 14:01 | 30.46762 | -87.18818 | 109 ft | 9 kts | 347° |
| 2026-04-22 14:02 | 30.46831 | -87.18836 | 108 ft | 15 kts | 348° |
| 2026-04-22 14:02 | 30.46897 | -87.18853 | 107 ft | 5 kts | 346° |
| 2026-04-22 14:02 | 30.46961 | -87.18871 | 106 ft | 12 kts | 346° |
| 2026-04-22 14:02 | 30.47033 | -87.18890 | 106 ft | 6 kts | 347° |
| 2026-04-22 14:03 | 30.47101 | -87.18908 | 107 ft | 9 kts | 347° |
| 2026-04-22 14:03 | 30.47129 | -87.18916 | 107 ft | 4 kts | 347° |
| 2026-04-22 14:03 | 30.47174 | -87.18928 | 108 ft | 0 kts | 348° |
| 2026-04-22 14:04 | 30.47211 | -87.18938 | 107 ft | 8 kts | 346° |
| 2026-04-22 14:04 | 30.47257 | -87.18920 | 107 ft | 7 kts | 70° |
| 2026-04-22 14:04 | 30.47263 | -87.18891 | 107 ft | 8 kts | 80° |
| 2026-04-22 14:05 | 30.47266 | -87.18874 | 107 ft | 0 kts | 73° |
| 2026-04-22 14:05 | 30.47267 | -87.18870 | 107 ft | 0 kts | 81° |
| 2026-04-22 14:05 | 30.47305 | -87.18656 | 112 ft | 60 kts | 78° |
| 2026-04-22 14:06 | 30.47419 | -87.17990 | 157 ft | 103 kts | 78° |
| 2026-04-22 14:06 | 30.47587 | -87.17088 | 354 ft | 132 kts | 77° |
| 2026-04-22 14:06 | 30.47794 | -87.15999 | 896 ft | 147 kts | 79° |
| 2026-04-22 14:06 | 30.48068 | -87.14826 | 1554 ft | 154 kts | 78° |
| 2026-04-22 14:07 | 30.48416 | -87.13625 | 2277 ft | 162 kts | 69° |
| 2026-04-22 14:07 | 30.49302 | -87.12735 | 2986 ft | 183 kts | 22° |
| 2026-04-22 14:07 | 30.50585 | -87.12789 | 3687 ft | 194 kts | 338° |
| 2026-04-22 14:07 | 30.51704 | -87.13673 | 4414 ft | 196 kts | 321° |
| 2026-04-22 14:08 | 30.52750 | -87.14691 | 5178 ft | 197 kts | 314° |
| 2026-04-22 14:08 | 30.53662 | -87.15886 | 5913 ft | 199 kts | 308° |
| 2026-04-22 14:08 | 30.54554 | -87.17123 | 6673 ft | 201 kts | 308° |
| 2026-04-22 14:08 | 30.55440 | -87.18358 | 7393 ft | 201 kts | 309° |
| 2026-04-22 14:09 | 30.56318 | -87.19586 | 8117 ft | 195 kts | 308° |
| 2026-04-22 14:09 | 30.57205 | -87.20740 | 8848 ft | 188 kts | 317° |
| 2026-04-22 14:09 | 30.58301 | -87.21590 | 9548 ft | 195 kts | 334° |
| 2026-04-22 14:09 | 30.59641 | -87.22078 | 9965 ft | 211 kts | 346° |
| 2026-04-22 14:10 | 30.61175 | -87.22446 | 10004 ft | 237 kts | 347° |
| 2026-04-22 14:10 | 30.62834 | -87.22864 | 10006 ft | 250 kts | 346° |
| 2026-04-22 14:10 | 30.64544 | -87.23335 | 10004 ft | 254 kts | 345° |
| 2026-04-22 14:10 | 30.66278 | -87.23816 | 10005 ft | 257 kts | 346° |
| 2026-04-22 14:11 | 30.68024 | -87.24291 | 10014 ft | 258 kts | 346° |
| 2026-04-22 14:11 | 30.69777 | -87.24767 | 10005 ft | 259 kts | 346° |
| 2026-04-22 14:11 | 30.71505 | -87.25240 | 9996 ft | 259 kts | 345° |
| 2026-04-22 14:11 | 30.73261 | -87.25720 | 9997 ft | 259 kts | 346° |
| 2026-04-22 14:12 | 30.74990 | -87.26279 | 9997 ft | 259 kts | 337° |
| 2026-04-22 14:12 | 30.76530 | -87.27343 | 9985 ft | 258 kts | 321° |
| 2026-04-22 14:12 | 30.77760 | -87.28847 | 9990 ft | 257 kts | 305° |
| 2026-04-22 14:12 | 30.78587 | -87.30676 | 9994 ft | 256 kts | 290° |
| 2026-04-22 14:13 | 30.78956 | -87.32697 | 9993 ft | 256 kts | 274° |
| 2026-04-22 14:13 | 30.78897 | -87.34764 | 9986 ft | 256 kts | 266° |
| 2026-04-22 14:13 | 30.78772 | -87.36800 | 9987 ft | 255 kts | 266° |
| 2026-04-22 14:13 | 30.78656 | -87.38862 | 9990 ft | 256 kts | 266° |
| 2026-04-22 14:14 | 30.78536 | -87.40924 | 9990 ft | 255 kts | 266° |
| 2026-04-22 14:14 | 30.78414 | -87.42984 | 9993 ft | 255 kts | 266° |
| 2026-04-22 14:14 | 30.78292 | -87.45043 | 9991 ft | 255 kts | 266° |
| 2026-04-22 14:14 | 30.78170 | -87.47107 | 9997 ft | 256 kts | 266° |
| 2026-04-22 14:15 | 30.78046 | -87.49171 | 9996 ft | 256 kts | 266° |
| 2026-04-22 14:15 | 30.77924 | -87.51238 | 9989 ft | 256 kts | 266° |
| 2026-04-22 14:15 | 30.77803 | -87.53307 | 9995 ft | 257 kts | 266° |
| 2026-04-22 14:15 | 30.77678 | -87.55350 | 9992 ft | 256 kts | 266° |
| 2026-04-22 14:16 | 30.77553 | -87.57418 | 9997 ft | 256 kts | 266° |
| 2026-04-22 14:16 | 30.77430 | -87.59478 | 10000 ft | 256 kts | 266° |
| 2026-04-22 14:16 | 30.77305 | -87.61546 | 9998 ft | 257 kts | 266° |
| 2026-04-22 14:16 | 30.77180 | -87.63617 | 9996 ft | 256 kts | 266° |
| 2026-04-22 14:17 | 30.77054 | -87.65686 | 10001 ft | 257 kts | 265° |
| 2026-04-22 14:17 | 30.76928 | -87.67765 | 10003 ft | 258 kts | 265° |
| 2026-04-22 14:17 | 30.76802 | -87.69845 | 10003 ft | 258 kts | 265° |
| 2026-04-22 14:17 | 30.76674 | -87.71929 | 9999 ft | 258 kts | 265° |
| 2026-04-22 14:18 | 30.76548 | -87.73976 | 9999 ft | 258 kts | 265° |
| 2026-04-22 14:18 | 30.76421 | -87.76053 | 9999 ft | 257 kts | 265° |
| 2026-04-22 14:18 | 30.76294 | -87.78122 | 10004 ft | 257 kts | 265° |
| 2026-04-22 14:18 | 30.76166 | -87.80201 | 10002 ft | 258 kts | 265° |
| 2026-04-22 14:19 | 30.76036 | -87.82278 | 10007 ft | 257 kts | 265° |
| 2026-04-22 14:19 | 30.75908 | -87.84354 | 10008 ft | 257 kts | 265° |
| 2026-04-22 14:19 | 30.75779 | -87.86424 | 10010 ft | 257 kts | 265° |
| 2026-04-22 14:19 | 30.75649 | -87.88496 | 10009 ft | 257 kts | 265° |
| 2026-04-22 14:20 | 30.75391 | -87.92619 | 10018 ft | 258 kts | 265° |
| 2026-04-22 14:20 | 30.75261 | -87.94690 | 10014 ft | 257 kts | 265° |
| 2026-04-22 14:20 | 30.75130 | -87.96764 | 10013 ft | 257 kts | 265° |
| 2026-04-22 14:21 | 30.74868 | -88.00903 | 10014 ft | 257 kts | 265° |
| 2026-04-22 14:21 | 30.74773 | -88.02400 | 10017 ft | 256 kts | 265° |
| 2026-04-22 14:22 | 30.74750 | -88.02758 | 10017 ft | 257 kts | 265° |
| 2026-04-22 14:23 | 30.74619 | -88.04829 | 10016 ft | 256 kts | 265° |
| 2026-04-22 14:23 | 30.74487 | -88.06891 | 10019 ft | 256 kts | 265° |
| 2026-04-22 14:23 | 30.74355 | -88.08956 | 10021 ft | 257 kts | 265° |
| 2026-04-22 14:23 | 30.74222 | -88.11023 | 10021 ft | 257 kts | 265° |
| 2026-04-22 14:24 | 30.74089 | -88.13094 | 10014 ft | 256 kts | 265° |
| 2026-04-22 14:24 | 30.73956 | -88.15154 | 10013 ft | 256 kts | 265° |
| 2026-04-22 14:24 | 30.73824 | -88.17194 | 10014 ft | 256 kts | 265° |
| 2026-04-22 14:24 | 30.73691 | -88.19256 | 10012 ft | 256 kts | 265° |
| 2026-04-22 14:25 | 30.73556 | -88.21315 | 10014 ft | 256 kts | 264° |
| 2026-04-22 14:25 | 30.73422 | -88.23376 | 10022 ft | 256 kts | 265° |
| 2026-04-22 14:25 | 30.73289 | -88.25434 | 10017 ft | 255 kts | 265° |
| 2026-04-22 14:25 | 30.73154 | -88.27493 | 10017 ft | 255 kts | 265° |
| 2026-04-22 14:26 | 30.73019 | -88.29552 | 10015 ft | 255 kts | 265° |
| 2026-04-22 14:26 | 30.72883 | -88.31608 | 10013 ft | 255 kts | 265° |
| 2026-04-22 14:26 | 30.72747 | -88.33665 | 10015 ft | 255 kts | 265° |
| 2026-04-22 14:26 | 30.72526 | -88.35702 | 10010 ft | 254 kts | 255° |
| 2026-04-22 14:27 | 30.71866 | -88.37605 | 10006 ft | 254 kts | 242° |
| 2026-04-22 14:27 | 30.71061 | -88.39401 | 10003 ft | 254 kts | 242° |
| 2026-04-22 14:27 | 30.70259 | -88.41227 | 10007 ft | 254 kts | 243° |
| 2026-04-22 14:27 | 30.69455 | -88.43058 | 10007 ft | 254 kts | 243° |
| 2026-04-22 14:28 | 30.68647 | -88.44885 | 10006 ft | 254 kts | 243° |
| 2026-04-22 14:28 | 30.67840 | -88.46709 | 10005 ft | 254 kts | 243° |
| 2026-04-22 14:28 | 30.67033 | -88.48536 | 10005 ft | 254 kts | 243° |
| 2026-04-22 14:28 | 30.66226 | -88.50363 | 9994 ft | 254 kts | 243° |
| 2026-04-22 14:29 | 30.65418 | -88.52189 | 9994 ft | 254 kts | 243° |
| 2026-04-22 14:29 | 30.64610 | -88.54013 | 9991 ft | 254 kts | 243° |
| 2026-04-22 14:29 | 30.63812 | -88.55814 | 9998 ft | 254 kts | 243° |
| 2026-04-22 14:29 | 30.63004 | -88.57639 | 9995 ft | 254 kts | 243° |
| 2026-04-22 14:30 | 30.62197 | -88.59461 | 9998 ft | 254 kts | 243° |
| 2026-04-22 14:30 | 30.61388 | -88.61286 | 9997 ft | 254 kts | 243° |
| 2026-04-22 14:30 | 30.60578 | -88.63110 | 9994 ft | 254 kts | 243° |
| 2026-04-22 14:30 | 30.59768 | -88.64934 | 9995 ft | 254 kts | 243° |
| 2026-04-22 14:31 | 30.58961 | -88.66752 | 9998 ft | 254 kts | 243° |
| 2026-04-22 14:31 | 30.58152 | -88.68572 | 9992 ft | 254 kts | 243° |
| 2026-04-22 14:31 | 30.57355 | -88.70366 | 9993 ft | 253 kts | 243° |
| 2026-04-22 14:31 | 30.56547 | -88.72181 | 9995 ft | 253 kts | 243° |
| 2026-04-22 14:32 | 30.55740 | -88.73997 | 9995 ft | 253 kts | 243° |
| 2026-04-22 14:32 | 30.54933 | -88.75811 | 9977 ft | 253 kts | 243° |
| 2026-04-22 14:32 | 30.54124 | -88.77624 | 9974 ft | 253 kts | 243° |
| 2026-04-22 14:32 | 30.53318 | -88.79431 | 9971 ft | 253 kts | 243° |
| 2026-04-22 14:33 | 30.52511 | -88.81243 | 9972 ft | 252 kts | 243° |
| 2026-04-22 14:33 | 30.51705 | -88.83051 | 9971 ft | 252 kts | 243° |
| 2026-04-22 14:33 | 30.50899 | -88.84858 | 9971 ft | 252 kts | 243° |
| 2026-04-22 14:33 | 30.50102 | -88.86641 | 9971 ft | 252 kts | 243° |
| 2026-04-22 14:34 | 30.49297 | -88.88445 | 9969 ft | 252 kts | 243° |
| 2026-04-22 14:34 | 30.48491 | -88.90249 | 9968 ft | 252 kts | 243° |
| 2026-04-22 14:34 | 30.47687 | -88.92047 | 9970 ft | 251 kts | 243° |
| 2026-04-22 14:34 | 30.46881 | -88.93848 | 9969 ft | 251 kts | 243° |
| 2026-04-22 14:35 | 30.46077 | -88.95645 | 9968 ft | 251 kts | 243° |
| 2026-04-22 14:35 | 30.45273 | -88.97441 | 9966 ft | 251 kts | 243° |
| 2026-04-22 14:35 | 30.44469 | -88.99235 | 9965 ft | 251 kts | 243° |
| 2026-04-22 14:35 | 30.43665 | -89.01029 | 9987 ft | 251 kts | 243° |
| 2026-04-22 14:36 | 30.42872 | -89.02798 | 9985 ft | 251 kts | 243° |
| 2026-04-22 14:36 | 30.42069 | -89.04588 | 9988 ft | 250 kts | 243° |
| 2026-04-22 14:36 | 30.41266 | -89.06379 | 9987 ft | 250 kts | 243° |
| 2026-04-22 14:36 | 30.40512 | -89.08189 | 9981 ft | 249 kts | 250° |
| 2026-04-22 14:37 | 30.39934 | -89.10077 | 9983 ft | 249 kts | 251° |
| 2026-04-22 14:37 | 30.39345 | -89.11965 | 9985 ft | 249 kts | 250° |
| 2026-04-22 14:37 | 30.38750 | -89.13850 | 9987 ft | 249 kts | 250° |
| 2026-04-22 14:37 | 30.38158 | -89.15735 | 9987 ft | 249 kts | 251° |
| 2026-04-22 14:38 | 30.37568 | -89.17617 | 9985 ft | 249 kts | 251° |
| 2026-04-22 14:38 | 30.36985 | -89.19473 | 9983 ft | 249 kts | 251° |
| 2026-04-22 14:38 | 30.36394 | -89.21353 | 9981 ft | 249 kts | 251° |
| 2026-04-22 14:38 | 30.35802 | -89.23239 | 9983 ft | 249 kts | 250° |
| 2026-04-22 14:39 | 30.35210 | -89.25122 | 9981 ft | 249 kts | 251° |
| 2026-04-22 14:39 | 30.34619 | -89.27000 | 9981 ft | 249 kts | 251° |
| 2026-04-22 14:39 | 30.34027 | -89.28879 | 9979 ft | 249 kts | 251° |
| 2026-04-22 14:40 | 30.33043 | -89.32001 | 9980 ft | 248 kts | 251° |
| 2026-04-22 14:40 | 30.32251 | -89.34515 | 9986 ft | 249 kts | 251° |
| 2026-04-22 14:40 | 30.31676 | -89.36330 | 9368 ft | 238 kts | 250° |
| 2026-04-22 14:40 | 30.31087 | -89.38204 | 8071 ft | 251 kts | 249° |
| 2026-04-22 14:41 | 30.30495 | -89.40083 | 7105 ft | 247 kts | 248° |
| 2026-04-22 14:41 | 30.29902 | -89.41955 | 6056 ft | 249 kts | 247° |
| 2026-04-22 14:41 | 30.29309 | -89.43826 | 5127 ft | 245 kts | 247° |
| 2026-04-22 14:41 | 30.28734 | -89.45647 | 4314 ft | 229 kts | 246° |
| 2026-04-22 14:42 | 30.28168 | -89.47433 | 3980 ft | 243 kts | 246° |
| 2026-04-22 14:42 | 30.27585 | -89.49265 | 3996 ft | 243 kts | 246° |
| 2026-04-22 14:42 | 30.27003 | -89.51107 | 3986 ft | 244 kts | 246° |
| 2026-04-22 14:42 | 30.26431 | -89.52917 | 3989 ft | 243 kts | 246° |
| 2026-04-22 14:43 | 30.25847 | -89.54751 | 3983 ft | 243 kts | 246° |
| 2026-04-22 14:43 | 30.25263 | -89.56584 | 3980 ft | 243 kts | 246° |
| 2026-04-22 14:43 | 30.24682 | -89.58419 | 3987 ft | 243 kts | 246° |
| 2026-04-22 14:43 | 30.24099 | -89.60251 | 3982 ft | 242 kts | 246° |
| 2026-04-22 14:44 | 30.23519 | -89.62076 | 3980 ft | 242 kts | 246° |
| 2026-04-22 14:44 | 30.22939 | -89.63901 | 3976 ft | 242 kts | 246° |
| 2026-04-22 14:44 | 30.22357 | -89.65728 | 3972 ft | 242 kts | 246° |
| 2026-04-22 14:44 | 30.21783 | -89.67530 | 3979 ft | 242 kts | 246° |
| 2026-04-22 14:45 | 30.21199 | -89.69357 | 3975 ft | 242 kts | 246° |
| 2026-04-22 14:45 | 30.20616 | -89.71187 | 3982 ft | 243 kts | 246° |
| 2026-04-22 14:45 | 30.20033 | -89.73020 | 3979 ft | 243 kts | 246° |
| 2026-04-22 14:45 | 30.19447 | -89.74852 | 3974 ft | 243 kts | 246° |
| 2026-04-22 14:46 | 30.18862 | -89.76679 | 3972 ft | 241 kts | 246° |
| 2026-04-22 14:46 | 30.18280 | -89.78501 | 3976 ft | 242 kts | 246° |
| 2026-04-22 14:46 | 30.17696 | -89.80327 | 3974 ft | 243 kts | 246° |
| 2026-04-22 14:46 | 30.17111 | -89.82157 | 3974 ft | 243 kts | 246° |
| 2026-04-22 14:47 | 30.16533 | -89.83964 | 3973 ft | 243 kts | 246° |
| 2026-04-22 14:47 | 30.15947 | -89.85793 | 3972 ft | 243 kts | 246° |
| 2026-04-22 14:47 | 30.15360 | -89.87624 | 3973 ft | 243 kts | 246° |
| 2026-04-22 14:47 | 30.14858 | -89.89483 | 3969 ft | 244 kts | 256° |
| 2026-04-22 14:48 | 30.14593 | -89.91423 | 3972 ft | 245 kts | 257° |
| 2026-04-22 14:48 | 30.14309 | -89.93363 | 3973 ft | 245 kts | 257° |
| 2026-04-22 14:48 | 30.14018 | -89.95303 | 3974 ft | 245 kts | 257° |
| 2026-04-22 14:48 | 30.13733 | -89.97241 | 3979 ft | 245 kts | 257° |
| 2026-04-22 14:49 | 30.13453 | -89.99156 | 3978 ft | 245 kts | 257° |
| 2026-04-22 14:49 | 30.13169 | -90.01093 | 3978 ft | 245 kts | 257° |
| 2026-04-22 14:49 | 30.13052 | -90.01892 | 3978 ft | 245 kts | 257° |
| 2026-04-22 14:51 | 30.12906 | -90.02880 | 3980 ft | 245 kts | 257° |
| 2026-04-22 14:51 | 30.12622 | -90.04810 | 3979 ft | 244 kts | 257° |
| 2026-04-22 14:51 | 30.12332 | -90.06770 | 3790 ft | 250 kts | 257° |
| 2026-04-22 14:51 | 30.12040 | -90.08752 | 3593 ft | 250 kts | 257° |
| 2026-04-22 14:52 | 30.11748 | -90.10738 | 3395 ft | 252 kts | 257° |
| 2026-04-22 14:52 | 30.11453 | -90.12728 | 3197 ft | 251 kts | 257° |
| 2026-04-22 14:52 | 30.11159 | -90.14715 | 2989 ft | 251 kts | 257° |
| 2026-04-22 14:52 | 30.10865 | -90.16705 | 2797 ft | 252 kts | 257° |
| 2026-04-22 14:53 | 30.10572 | -90.18674 | 2592 ft | 252 kts | 257° |
| 2026-04-22 14:53 | 30.10279 | -90.20656 | 2392 ft | 250 kts | 257° |
| 2026-04-22 14:53 | 30.09985 | -90.22632 | 2189 ft | 250 kts | 257° |
| 2026-04-22 14:53 | 30.09693 | -90.24614 | 1997 ft | 250 kts | 257° |
| 2026-04-22 14:54 | 30.09404 | -90.26568 | 1969 ft | 244 kts | 256° |
| 2026-04-22 14:54 | 30.09122 | -90.28487 | 1966 ft | 242 kts | 257° |
| 2026-04-22 14:54 | 30.08837 | -90.30404 | 1964 ft | 242 kts | 257° |
| 2026-04-22 14:54 | 30.08554 | -90.32310 | 1962 ft | 241 kts | 257° |
| 2026-04-22 14:55 | 30.08271 | -90.34213 | 1959 ft | 241 kts | 257° |
| 2026-04-22 14:55 | 30.07987 | -90.36129 | 1960 ft | 242 kts | 257° |
| 2026-04-22 14:55 | 30.07726 | -90.37913 | 1953 ft | 218 kts | 256° |
| 2026-04-22 14:55 | 30.07473 | -90.39609 | 1952 ft | 212 kts | 255° |
| 2026-04-22 14:56 | 30.07220 | -90.41281 | 1959 ft | 211 kts | 256° |
| 2026-04-22 14:56 | 30.06973 | -90.42939 | 1972 ft | 202 kts | 255° |
| 2026-04-22 14:56 | 30.06744 | -90.44505 | 1961 ft | 194 kts | 255° |
| 2026-04-22 14:56 | 30.06505 | -90.46058 | 1993 ft | 197 kts | 255° |
| 2026-04-22 14:57 | 30.06270 | -90.47622 | 1998 ft | 197 kts | 255° |
| 2026-04-22 14:57 | 30.05913 | -90.49122 | 2005 ft | 190 kts | 242° |
| 2026-04-22 14:57 | 30.05333 | -90.50444 | 2009 ft | 186 kts | 230° |
| 2026-04-22 14:57 | 30.04431 | -90.51379 | 1987 ft | 168 kts | 165° |
| 2026-04-22 14:58 | 30.03884 | -90.50297 | 2006 ft | 163 kts | 100° |
| 2026-04-22 14:58 | 30.03825 | -90.48965 | 2023 ft | 169 kts | 92° |
| 2026-04-22 14:58 | 30.03846 | -90.47610 | 1971 ft | 170 kts | 88° |
| 2026-04-22 14:58 | 30.03946 | -90.46216 | 1857 ft | 172 kts | 90° |
| 2026-04-22 14:59 | 30.03802 | -90.44908 | 2050 ft | 163 kts | 106° |
| 2026-04-22 14:59 | 30.03456 | -90.43665 | 2105 ft | 160 kts | 111° |
| 2026-04-22 14:59 | 30.03128 | -90.42513 | 1879 ft | 149 kts | 110° |
| 2026-04-22 14:59 | 30.02827 | -90.41374 | 1606 ft | 150 kts | 109° |
| 2026-04-22 15:00 | 30.02629 | -90.40236 | 1583 ft | 141 kts | 103° |
| 2026-04-22 15:00 | 30.02416 | -90.39180 | 1783 ft | 120 kts | 110° |
| 2026-04-22 15:00 | 30.02169 | -90.38299 | 1993 ft | 118 kts | 112° |
| 2026-04-22 15:00 | 30.01903 | -90.37349 | 1723 ft | 129 kts | 109° |
| 2026-04-22 15:01 | 30.01679 | -90.36345 | 1532 ft | 129 kts | 108° |
| 2026-04-22 15:01 | 30.01443 | -90.35341 | 1313 ft | 132 kts | 108° |
| 2026-04-22 15:01 | 30.01171 | -90.34329 | 1167 ft | 129 kts | 111° |
| 2026-04-22 15:01 | 30.00908 | -90.33347 | 1032 ft | 131 kts | 108° |
| 2026-04-22 15:02 | 30.00679 | -90.32324 | 804 ft | 130 kts | 108° |
| 2026-04-22 15:02 | 30.00435 | -90.31340 | 631 ft | 125 kts | 109° |
| 2026-04-22 15:02 | 30.00186 | -90.30427 | 470 ft | 114 kts | 108° |
| 2026-04-22 15:02 | 29.99995 | -90.29537 | 269 ft | 113 kts | 106° |
| 2026-04-22 15:03 | 29.99790 | -90.28690 | 156 ft | 106 kts | 109° |
| 2026-04-22 15:03 | 29.99595 | -90.27857 | 28 ft | 104 kts | 107° |
| 2026-04-22 15:03 | 29.99447 | -90.27239 | 8 ft | 29 kts | 105° |
| 2026-04-22 15:03 | 29.99431 | -90.27178 | 10 ft | 15 kts | 110° |
| 2026-04-22 15:04 | 29.99372 | -90.27114 | 10 ft | 12 kts | 179° |
| 2026-04-22 15:04 | 29.99341 | -90.27120 | 10 ft | 0 kts | 192° |